sensor_id;sensor_type;location;lat;lon;timestamp;temperature;humidity
39889;DHT22;25563;50.844;4.308;2024-03-23T00:54:11;9.30;99.90
39889;DHT22;25563;50.844;4.308;2024-03-23T00:56:39;9.20;99.90
39889;DHT22;25563;50.844;4.308;2024-03-23T00:59:07;9.40;99.90
39889;DHT22;25563;50.844;4.308;2024-03-23T01:01:33;9.50;99.90
39889;DHT22;25563;50.844;4.308;2024-03-23T01:03:59;9.40;99.90
39889;DHT22;25563;50.844;4.308;2024-03-23T01:06:24;9.30;99.90
39889;DHT22;25563;50.844;4.308;2024-03-23T01:08:51;9.50;99.90
39889;DHT22;25563;50.844;4.308;2024-03-23T01:11:18;9.50;99.90
39889;DHT22;25563;50.844;4.308;2024-03-23T01:13:44;9.60;99.90
39889;DHT22;25563;50.844;4.308;2024-03-23T01:16:10;9.30;99.90
39889;DHT22;25563;50.844;4.308;2024-03-23T01:18:36;9.10;99.90
39889;DHT22;25563;50.844;4.308;2024-03-23T01:21:02;8.90;99.90
39889;DHT22;25563;50.844;4.308;2024-03-23T01:23:28;8.20;99.90
39889;DHT22;25563;50.844;4.308;2024-03-23T01:25:55;9.10;99.90
39889;DHT22;25563;50.844;4.308;2024-03-23T01:28:24;9.10;99.90
39889;DHT22;25563;50.844;4.308;2024-03-23T01:30:50;9.30;99.90
39889;DHT22;25563;50.844;4.308;2024-03-23T01:33:16;9.10;99.90
39889;DHT22;25563;50.844;4.308;2024-03-23T01:35:41;9.10;99.90
39889;DHT22;25563;50.844;4.308;2024-03-23T01:38:13;9.00;99.90
39889;DHT22;25563;50.844;4.308;2024-03-23T01:40:43;9.00;99.90
39889;DHT22;25563;50.844;4.308;2024-03-23T01:43:08;9.20;99.90
39889;DHT22;25563;50.844;4.308;2024-03-23T01:45:34;9.00;99.90
39889;DHT22;25563;50.844;4.308;2024-03-23T01:48:01;8.40;99.90
39889;DHT22;25563;50.844;4.308;2024-03-23T01:50:31;9.10;99.90
39889;DHT22;25563;50.844;4.308;2024-03-23T01:53:02;9.20;99.90
39889;DHT22;25563;50.844;4.308;2024-03-23T01:55:28;9.40;99.90
39889;DHT22;25563;50.844;4.308;2024-03-23T01:57:57;9.40;99.90
39889;DHT22;25563;50.844;4.308;2024-03-23T02:00:24;9.50;99.90
39889;DHT22;25563;50.844;4.308;2024-03-23T02:02:53;9.40;99.90
39889;DHT22;25563;50.844;4.308;2024-03-23T02:05:22;9.40;99.90
39889;DHT22;25563;50.844;4.308;2024-03-23T02:07:48;9.60;99.90
39889;DHT22;25563;50.844;4.308;2024-03-23T02:10:16;9.70;99.90
39889;DHT22;25563;50.844;4.308;2024-03-23T02:12:42;9.00;99.90
39889;DHT22;25563;50.844;4.308;2024-03-23T02:15:08;9.80;99.90
39889;DHT22;25563;50.844;4.308;2024-03-23T02:17:39;9.50;99.90
39889;DHT22;25563;50.844;4.308;2024-03-23T02:20:05;9.40;99.90
39889;DHT22;25563;50.844;4.308;2024-03-23T02:22:39;8.40;99.90
39889;DHT22;25563;50.844;4.308;2024-03-23T02:25:08;9.20;99.90
39889;DHT22;25563;50.844;4.308;2024-03-23T02:27:35;9.30;99.90
39889;DHT22;25563;50.844;4.308;2024-03-23T02:30:04;9.30;99.90
39889;DHT22;25563;50.844;4.308;2024-03-23T02:32:32;9.40;99.90
39889;DHT22;25563;50.844;4.308;2024-03-23T02:34:58;9.30;99.90
39889;DHT22;25563;50.844;4.308;2024-03-23T02:37:23;9.30;99.90
39889;DHT22;25563;50.844;4.308;2024-03-23T02:39:52;9.30;99.90
39889;DHT22;25563;50.844;4.308;2024-03-23T02:42:19;9.40;99.90
39889;DHT22;25563;50.844;4.308;2024-03-23T02:44:46;9.40;99.90
39889;DHT22;25563;50.844;4.308;2024-03-23T02:47:13;9.30;99.90
39889;DHT22;25563;50.844;4.308;2024-03-23T02:49:39;9.30;99.90
39889;DHT22;25563;50.844;4.308;2024-03-23T02:52:08;9.30;99.90
39889;DHT22;25563;50.844;4.308;2024-03-23T02:54:35;9.40;99.90
39889;DHT22;25563;50.844;4.308;2024-03-23T02:57:02;9.40;99.90
39889;DHT22;25563;50.844;4.308;2024-03-23T02:59:28;9.30;99.90
39889;DHT22;25563;50.844;4.308;2024-03-23T03:01:55;9.20;99.90
39889;DHT22;25563;50.844;4.308;2024-03-23T03:04:21;9.40;99.90
39889;DHT22;25563;50.844;4.308;2024-03-23T03:06:47;9.50;99.90
39889;DHT22;25563;50.844;4.308;2024-03-23T03:09:13;9.30;99.90
39889;DHT22;25563;50.844;4.308;2024-03-23T03:11:39;9.30;99.90
39889;DHT22;25563;50.844;4.308;2024-03-23T03:14:05;9.30;99.90
39889;DHT22;25563;50.844;4.308;2024-03-23T03:16:34;9.30;99.90
39889;DHT22;25563;50.844;4.308;2024-03-23T03:19:00;9.50;99.90
39889;DHT22;25563;50.844;4.308;2024-03-23T03:21:26;9.50;99.90
39889;DHT22;25563;50.844;4.308;2024-03-23T03:23:52;9.40;99.90
39889;DHT22;25563;50.844;4.308;2024-03-23T03:26:18;9.30;99.90
39889;DHT22;25563;50.844;4.308;2024-03-23T03:28:45;9.80;99.90
39889;DHT22;25563;50.844;4.308;2024-03-23T03:31:15;9.50;99.90
39889;DHT22;25563;50.844;4.308;2024-03-23T03:33:42;9.70;99.90
39889;DHT22;25563;50.844;4.308;2024-03-23T03:36:07;9.70;99.90
39889;DHT22;25563;50.844;4.308;2024-03-23T03:38:36;9.60;99.90
39889;DHT22;25563;50.844;4.308;2024-03-23T03:41:02;9.40;99.90
39889;DHT22;25563;50.844;4.308;2024-03-23T03:43:28;9.40;99.90
39889;DHT22;25563;50.844;4.308;2024-03-23T03:45:55;9.30;99.90
39889;DHT22;25563;50.844;4.308;2024-03-23T03:48:21;9.40;99.90
39889;DHT22;25563;50.844;4.308;2024-03-23T03:50:47;9.30;99.90
39889;DHT22;25563;50.844;4.308;2024-03-23T03:53:13;9.20;99.90
39889;DHT22;25563;50.844;4.308;2024-03-23T03:55:39;9.00;99.90
39889;DHT22;25563;50.844;4.308;2024-03-23T03:58:05;9.20;99.90
39889;DHT22;25563;50.844;4.308;2024-03-23T04:00:33;9.10;99.90
39889;DHT22;25563;50.844;4.308;2024-03-23T04:02:59;9.10;99.90
39889;DHT22;25563;50.844;4.308;2024-03-23T04:05:25;9.00;99.90
39889;DHT22;25563;50.844;4.308;2024-03-23T04:07:51;8.90;99.90
39889;DHT22;25563;50.844;4.308;2024-03-23T04:10:16;9.10;99.90
39889;DHT22;25563;50.844;4.308;2024-03-23T04:12:43;9.30;99.90
39889;DHT22;25563;50.844;4.308;2024-03-23T04:15:10;9.10;99.90
39889;DHT22;25563;50.844;4.308;2024-03-23T04:17:36;9.10;99.90
39889;DHT22;25563;50.844;4.308;2024-03-23T04:20:02;9.00;99.90
39889;DHT22;25563;50.844;4.308;2024-03-23T04:22:29;8.80;99.90
39889;DHT22;25563;50.844;4.308;2024-03-23T04:24:56;8.80;99.90
39889;DHT22;25563;50.844;4.308;2024-03-23T04:27:22;8.80;99.90
39889;DHT22;25563;50.844;4.308;2024-03-23T04:29:50;8.70;99.90
39889;DHT22;25563;50.844;4.308;2024-03-23T04:32:16;8.80;99.90
39889;DHT22;25563;50.844;4.308;2024-03-23T04:34:44;8.90;99.90
39889;DHT22;25563;50.844;4.308;2024-03-23T04:37:11;9.00;99.90
39889;DHT22;25563;50.844;4.308;2024-03-23T04:39:38;9.00;99.90
39889;DHT22;25563;50.844;4.308;2024-03-23T04:42:05;9.00;99.90
39889;DHT22;25563;50.844;4.308;2024-03-23T04:44:31;9.30;99.90
39889;DHT22;25563;50.844;4.308;2024-03-23T04:46:57;9.40;99.90
39889;DHT22;25563;50.844;4.308;2024-03-23T04:49:23;9.10;99.90
39889;DHT22;25563;50.844;4.308;2024-03-23T04:51:51;9.30;99.90
39889;DHT22;25563;50.844;4.308;2024-03-23T04:54:17;9.30;99.90
39889;DHT22;25563;50.844;4.308;2024-03-23T04:56:43;9.10;99.90
39889;DHT22;25563;50.844;4.308;2024-03-23T04:59:09;8.60;99.90
39889;DHT22;25563;50.844;4.308;2024-03-23T05:01:35;8.60;99.90
39889;DHT22;25563;50.844;4.308;2024-03-23T05:04:04;8.60;99.90
39889;DHT22;25563;50.844;4.308;2024-03-23T05:06:29;8.80;99.90
39889;DHT22;25563;50.844;4.308;2024-03-23T05:08:56;8.60;99.90
39889;DHT22;25563;50.844;4.308;2024-03-23T05:11:21;9.00;99.90
39889;DHT22;25563;50.844;4.308;2024-03-23T05:13:47;9.10;99.90
39889;DHT22;25563;50.844;4.308;2024-03-23T05:16:13;9.30;99.90
39889;DHT22;25563;50.844;4.308;2024-03-23T05:18:38;9.20;99.90
39889;DHT22;25563;50.844;4.308;2024-03-23T05:21:04;9.00;99.90
39889;DHT22;25563;50.844;4.308;2024-03-23T05:23:30;8.90;99.90
39889;DHT22;25563;50.844;4.308;2024-03-23T05:25:56;9.10;99.90
39889;DHT22;25563;50.844;4.308;2024-03-23T05:28:22;9.60;99.90
39889;DHT22;25563;50.844;4.308;2024-03-23T05:30:53;9.00;99.90
39889;DHT22;25563;50.844;4.308;2024-03-23T05:33:20;8.70;99.90
39889;DHT22;25563;50.844;4.308;2024-03-23T05:35:55;8.50;99.90
39889;DHT22;25563;50.844;4.308;2024-03-23T05:38:21;8.70;99.90
39889;DHT22;25563;50.844;4.308;2024-03-23T05:40:57;8.70;99.90
39889;DHT22;25563;50.844;4.308;2024-03-23T05:43:23;8.80;99.90
39889;DHT22;25563;50.844;4.308;2024-03-23T05:45:56;8.60;99.90
39889;DHT22;25563;50.844;4.308;2024-03-23T05:48:22;8.70;99.90
39889;DHT22;25563;50.844;4.308;2024-03-23T05:50:49;8.80;99.90
39889;DHT22;25563;50.844;4.308;2024-03-23T05:53:16;8.90;99.90
39889;DHT22;25563;50.844;4.308;2024-03-23T05:55:43;8.80;99.90
39889;DHT22;25563;50.844;4.308;2024-03-23T05:58:10;8.60;99.90
39889;DHT22;25563;50.844;4.308;2024-03-23T06:00:36;8.40;99.90
39889;DHT22;25563;50.844;4.308;2024-03-23T06:03:02;9.00;99.90
39889;DHT22;25563;50.844;4.308;2024-03-23T06:05:28;9.00;99.90
39889;DHT22;25563;50.844;4.308;2024-03-23T06:07:54;8.80;99.90
39889;DHT22;25563;50.844;4.308;2024-03-23T06:10:19;8.80;99.90
39889;DHT22;25563;50.844;4.308;2024-03-23T06:12:49;9.00;99.90
39889;DHT22;25563;50.844;4.308;2024-03-23T06:15:20;9.20;99.90
39889;DHT22;25563;50.844;4.308;2024-03-23T06:17:46;9.00;99.90
39889;DHT22;25563;50.844;4.308;2024-03-23T06:20:12;9.10;99.90
39889;DHT22;25563;50.844;4.308;2024-03-23T06:22:38;8.90;99.90
39889;DHT22;25563;50.844;4.308;2024-03-23T06:25:05;8.60;99.90
39889;DHT22;25563;50.844;4.308;2024-03-23T06:27:31;8.60;99.90
39889;DHT22;25563;50.844;4.308;2024-03-23T06:30:01;8.80;99.90
39889;DHT22;25563;50.844;4.308;2024-03-23T06:32:28;9.10;99.90
39889;DHT22;25563;50.844;4.308;2024-03-23T06:34:54;9.10;99.90
39889;DHT22;25563;50.844;4.308;2024-03-23T06:37:20;8.90;99.90
39889;DHT22;25563;50.844;4.308;2024-03-23T06:39:46;8.80;99.90
39889;DHT22;25563;50.844;4.308;2024-03-23T06:42:12;9.00;99.90
39889;DHT22;25563;50.844;4.308;2024-03-23T06:44:39;9.00;99.90
39889;DHT22;25563;50.844;4.308;2024-03-23T06:47:05;9.00;99.90
39889;DHT22;25563;50.844;4.308;2024-03-23T06:49:31;9.10;99.90
39889;DHT22;25563;50.844;4.308;2024-03-23T06:51:56;9.20;99.90
39889;DHT22;25563;50.844;4.308;2024-03-23T06:54:24;9.40;99.90
39889;DHT22;25563;50.844;4.308;2024-03-23T06:56:50;9.70;99.90
39889;DHT22;25563;50.844;4.308;2024-03-23T06:59:16;9.60;99.90
39889;DHT22;25563;50.844;4.308;2024-03-23T07:01:42;9.50;99.90
39889;DHT22;25563;50.844;4.308;2024-03-23T07:04:09;9.10;99.90
39889;DHT22;25563;50.844;4.308;2024-03-23T07:06:45;8.30;99.90
39889;DHT22;25563;50.844;4.308;2024-03-23T07:09:11;7.90;99.90
39889;DHT22;25563;50.844;4.308;2024-03-23T07:11:38;7.30;99.90
39889;DHT22;25563;50.844;4.308;2024-03-23T07:14:05;7.20;99.90
39889;DHT22;25563;50.844;4.308;2024-03-23T07:16:31;7.10;99.90
39889;DHT22;25563;50.844;4.308;2024-03-23T07:18:57;7.40;99.90
39889;DHT22;25563;50.844;4.308;2024-03-23T07:21:23;7.10;99.90
39889;DHT22;25563;50.844;4.308;2024-03-23T07:23:52;7.00;99.90
39889;DHT22;25563;50.844;4.308;2024-03-23T07:26:19;7.20;99.90
39889;DHT22;25563;50.844;4.308;2024-03-23T07:28:45;7.30;99.90
39889;DHT22;25563;50.844;4.308;2024-03-23T07:31:14;7.50;99.90
39889;DHT22;25563;50.844;4.308;2024-03-23T07:33:47;8.20;99.90
39889;DHT22;25563;50.844;4.308;2024-03-23T07:36:14;8.00;99.90
39889;DHT22;25563;50.844;4.308;2024-03-23T07:38:41;7.70;99.90
39889;DHT22;25563;50.844;4.308;2024-03-23T07:41:15;9.00;99.90
39889;DHT22;25563;50.844;4.308;2024-03-23T07:43:59;7.70;99.90
39889;DHT22;25563;50.844;4.308;2024-03-23T07:46:32;8.10;99.90
39889;DHT22;25563;50.844;4.308;2024-03-23T07:49:10;8.00;99.90
39889;DHT22;25563;50.844;4.308;2024-03-23T07:51:41;7.90;99.90
39889;DHT22;25563;50.844;4.308;2024-03-23T07:54:15;8.20;99.90
39889;DHT22;25563;50.844;4.308;2024-03-23T07:56:44;7.50;99.90
39889;DHT22;25563;50.844;4.308;2024-03-23T08:01:51;8.30;99.90
39889;DHT22;25563;50.844;4.308;2024-03-23T08:04:17;8.40;99.90
39889;DHT22;25563;50.844;4.308;2024-03-23T08:06:46;8.50;99.90
39889;DHT22;25563;50.844;4.308;2024-03-23T08:09:15;8.80;99.90
39889;DHT22;25563;50.844;4.308;2024-03-23T08:11:41;8.80;99.90
39889;DHT22;25563;50.844;4.308;2024-03-23T08:14:09;8.50;99.90
39889;DHT22;25563;50.844;4.308;2024-03-23T08:16:38;8.40;99.90
39889;DHT22;25563;50.844;4.308;2024-03-23T08:19:04;8.30;99.90
39889;DHT22;25563;50.844;4.308;2024-03-23T08:21:37;8.70;99.90
39889;DHT22;25563;50.844;4.308;2024-03-23T08:26:43;7.60;99.90
39889;DHT22;25563;50.844;4.308;2024-03-23T08:29:18;8.80;99.90
39889;DHT22;25563;50.844;4.308;2024-03-23T08:34:24;9.00;99.90
39889;DHT22;25563;50.844;4.308;2024-03-23T08:37:12;8.70;99.90
39889;DHT22;25563;50.844;4.308;2024-03-23T08:39:38;9.30;99.90
39889;DHT22;25563;50.844;4.308;2024-03-23T08:42:04;9.50;99.90
39889;DHT22;25563;50.844;4.308;2024-03-23T08:44:35;9.50;99.90
39889;DHT22;25563;50.844;4.308;2024-03-23T08:47:09;9.30;99.90
39889;DHT22;25563;50.844;4.308;2024-03-23T08:52:16;9.10;99.90
39889;DHT22;25563;50.844;4.308;2024-03-23T08:57:40;9.70;99.90
39889;DHT22;25563;50.844;4.308;2024-03-23T09:07:18;9.90;99.90
39889;DHT22;25563;50.844;4.308;2024-03-23T09:10:05;10.50;99.90
39889;DHT22;25563;50.844;4.308;2024-03-23T09:12:33;10.30;99.90
39889;DHT22;25563;50.844;4.308;2024-03-23T09:15:00;10.50;99.90
39889;DHT22;25563;50.844;4.308;2024-03-23T09:17:27;10.30;99.90
39889;DHT22;25563;50.844;4.308;2024-03-23T09:19:54;10.20;99.90
39889;DHT22;25563;50.844;4.308;2024-03-23T09:22:21;10.50;99.90
39889;DHT22;25563;50.844;4.308;2024-03-23T09:24:47;10.60;99.90
39889;DHT22;25563;50.844;4.308;2024-03-23T09:27:14;10.50;99.90
39889;DHT22;25563;50.844;4.308;2024-03-23T09:29:40;10.40;99.90
39889;DHT22;25563;50.844;4.308;2024-03-23T09:32:06;10.70;99.30
39889;DHT22;25563;50.844;4.308;2024-03-23T09:34:38;10.80;99.00
39889;DHT22;25563;50.844;4.308;2024-03-23T09:37:05;10.80;99.00
39889;DHT22;25563;50.844;4.308;2024-03-23T09:39:31;10.90;99.40
39889;DHT22;25563;50.844;4.308;2024-03-23T09:41:58;10.70;99.00
39889;DHT22;25563;50.844;4.308;2024-03-23T09:44:24;10.80;98.60
39889;DHT22;25563;50.844;4.308;2024-03-23T09:46:53;11.00;98.00
39889;DHT22;25563;50.844;4.308;2024-03-23T09:49:20;11.50;98.20
39889;DHT22;25563;50.844;4.308;2024-03-23T09:51:46;10.80;97.60
39889;DHT22;25563;50.844;4.308;2024-03-23T09:54:12;10.90;97.80
39889;DHT22;25563;50.844;4.308;2024-03-23T09:56:37;10.30;96.90
39889;DHT22;25563;50.844;4.308;2024-03-23T09:59:05;11.20;96.60
39889;DHT22;25563;50.844;4.308;2024-03-23T10:01:34;11.10;96.70
39889;DHT22;25563;50.844;4.308;2024-03-23T10:04:00;11.20;96.20
39889;DHT22;25563;50.844;4.308;2024-03-23T10:06:27;10.80;96.40
39889;DHT22;25563;50.844;4.308;2024-03-23T10:08:56;10.90;96.40
39889;DHT22;25563;50.844;4.308;2024-03-23T10:11:23;10.00;95.10
39889;DHT22;25563;50.844;4.308;2024-03-23T10:13:54;11.20;95.80
39889;DHT22;25563;50.844;4.308;2024-03-23T10:16:23;11.10;95.30
39889;DHT22;25563;50.844;4.308;2024-03-23T10:18:54;11.20;94.80
39889;DHT22;25563;50.844;4.308;2024-03-23T10:21:19;11.10;95.10
39889;DHT22;25563;50.844;4.308;2024-03-23T10:23:45;11.20;95.60
39889;DHT22;25563;50.844;4.308;2024-03-23T10:26:21;11.10;95.30
39889;DHT22;25563;50.844;4.308;2024-03-23T10:28:55;11.10;95.40
39889;DHT22;25563;50.844;4.308;2024-03-23T10:31:30;10.60;96.90
39889;DHT22;25563;50.844;4.308;2024-03-23T10:33:57;9.90;97.20
39889;DHT22;25563;50.844;4.308;2024-03-23T10:36:26;9.50;99.10
39889;DHT22;25563;50.844;4.308;2024-03-23T10:38:53;9.30;98.10
39889;DHT22;25563;50.844;4.308;2024-03-23T10:41:22;9.10;98.10
39889;DHT22;25563;50.844;4.308;2024-03-23T10:43:49;9.40;97.80
39889;DHT22;25563;50.844;4.308;2024-03-23T10:46:17;9.40;98.10
39889;DHT22;25563;50.844;4.308;2024-03-23T10:48:43;9.30;97.80
39889;DHT22;25563;50.844;4.308;2024-03-23T10:51:10;9.60;98.10
39889;DHT22;25563;50.844;4.308;2024-03-23T10:53:36;10.00;96.10
39889;DHT22;25563;50.844;4.308;2024-03-23T10:56:06;9.60;97.00
39889;DHT22;25563;50.844;4.308;2024-03-23T10:58:44;9.50;96.30
39889;DHT22;25563;50.844;4.308;2024-03-23T11:01:16;9.70;96.00
39889;DHT22;25563;50.844;4.308;2024-03-23T11:03:48;10.40;95.60
39889;DHT22;25563;50.844;4.308;2024-03-23T11:06:38;10.70;94.20
39889;DHT22;25563;50.844;4.308;2024-03-23T11:09:47;10.70;93.90
39889;DHT22;25563;50.844;4.308;2024-03-23T11:17:28;10.90;93.10
39889;DHT22;25563;50.844;4.308;2024-03-23T11:20:05;11.00;92.60
39889;DHT22;25563;50.844;4.308;2024-03-23T11:25:23;11.70;91.10
39889;DHT22;25563;50.844;4.308;2024-03-23T11:27:54;12.00;91.00
39889;DHT22;25563;50.844;4.308;2024-03-23T11:30:27;11.90;91.40
39889;DHT22;25563;50.844;4.308;2024-03-23T11:32:55;11.60;91.30
39889;DHT22;25563;50.844;4.308;2024-03-23T11:35:34;11.50;92.10
39889;DHT22;25563;50.844;4.308;2024-03-23T11:40:41;11.40;92.60
39889;DHT22;25563;50.844;4.308;2024-03-23T11:43:09;11.70;91.70
39889;DHT22;25563;50.844;4.308;2024-03-23T11:45:50;11.70;91.50
39889;DHT22;25563;50.844;4.308;2024-03-23T11:48:22;11.70;91.90
39889;DHT22;25563;50.844;4.308;2024-03-23T11:50:49;12.00;91.40
39889;DHT22;25563;50.844;4.308;2024-03-23T11:53:20;12.50;91.50
39889;DHT22;25563;50.844;4.308;2024-03-23T11:58:16;14.40;88.30
39889;DHT22;25563;50.844;4.308;2024-03-23T12:00:42;16.40;83.60
39889;DHT22;25563;50.844;4.308;2024-03-23T12:03:08;16.30;80.70
39889;DHT22;25563;50.844;4.308;2024-03-23T12:05:36;14.90;80.90
39889;DHT22;25563;50.844;4.308;2024-03-23T12:08:18;14.80;83.20
39889;DHT22;25563;50.844;4.308;2024-03-23T12:11:04;14.40;82.90
39889;DHT22;25563;50.844;4.308;2024-03-23T12:13:30;13.40;83.10
39889;DHT22;25563;50.844;4.308;2024-03-23T12:16:09;11.90;85.70
39889;DHT22;25563;50.844;4.308;2024-03-23T12:18:36;11.20;91.10
39889;DHT22;25563;50.844;4.308;2024-03-23T12:21:02;10.20;92.80
39889;DHT22;25563;50.844;4.308;2024-03-23T12:23:28;9.80;94.60
39889;DHT22;25563;50.844;4.308;2024-03-23T12:25:54;9.30;94.60
39889;DHT22;25563;50.844;4.308;2024-03-23T12:28:20;8.90;95.00
39889;DHT22;25563;50.844;4.308;2024-03-23T12:30:45;9.70;94.80
39889;DHT22;25563;50.844;4.308;2024-03-23T12:33:12;12.00;92.50
39889;DHT22;25563;50.844;4.308;2024-03-23T12:35:37;13.70;90.20
39889;DHT22;25563;50.844;4.308;2024-03-23T12:38:04;14.90;87.50
39889;DHT22;25563;50.844;4.308;2024-03-23T12:40:30;16.80;83.50
39889;DHT22;25563;50.844;4.308;2024-03-23T12:42:56;18.60;80.20
39889;DHT22;25563;50.844;4.308;2024-03-23T12:45:22;19.80;76.10
39889;DHT22;25563;50.844;4.308;2024-03-23T12:47:48;20.70;73.10
39889;DHT22;25563;50.844;4.308;2024-03-23T12:50:16;22.00;71.00
39889;DHT22;25563;50.844;4.308;2024-03-23T12:52:42;22.40;65.20
39889;DHT22;25563;50.844;4.308;2024-03-23T12:55:08;21.50;64.20
39889;DHT22;25563;50.844;4.308;2024-03-23T12:57:33;21.60;63.50
39889;DHT22;25563;50.844;4.308;2024-03-23T12:59:59;22.10;62.00
39889;DHT22;25563;50.844;4.308;2024-03-23T13:02:25;22.20;59.70
39889;DHT22;25563;50.844;4.308;2024-03-23T13:04:52;21.90;59.80
39889;DHT22;25563;50.844;4.308;2024-03-23T13:07:19;21.20;60.50
39889;DHT22;25563;50.844;4.308;2024-03-23T13:09:45;22.50;58.50
39889;DHT22;25563;50.844;4.308;2024-03-23T13:12:11;23.00;57.30
39889;DHT22;25563;50.844;4.308;2024-03-23T13:14:40;22.40;57.00
39889;DHT22;25563;50.844;4.308;2024-03-23T13:17:06;21.90;57.40
39889;DHT22;25563;50.844;4.308;2024-03-23T13:19:33;19.40;60.10
39889;DHT22;25563;50.844;4.308;2024-03-23T13:21:59;17.40;64.00
39889;DHT22;25563;50.844;4.308;2024-03-23T13:24:29;16.30;66.10
39889;DHT22;25563;50.844;4.308;2024-03-23T13:26:55;17.30;65.20
39889;DHT22;25563;50.844;4.308;2024-03-23T13:29:21;19.60;62.00
39889;DHT22;25563;50.844;4.308;2024-03-23T13:31:50;20.60;60.10
39889;DHT22;25563;50.844;4.308;2024-03-23T13:34:17;20.60;60.60
39889;DHT22;25563;50.844;4.308;2024-03-23T13:36:48;22.80;58.90
39889;DHT22;25563;50.844;4.308;2024-03-23T13:39:14;21.80;59.80
39889;DHT22;25563;50.844;4.308;2024-03-23T13:41:42;21.30;61.00
39889;DHT22;25563;50.844;4.308;2024-03-23T13:44:09;22.00;60.60
39889;DHT22;25563;50.844;4.308;2024-03-23T13:46:39;23.70;59.90
39889;DHT22;25563;50.844;4.308;2024-03-23T13:51:49;23.60;56.60
39889;DHT22;25563;50.844;4.308;2024-03-23T13:54:15;23.10;57.40
39889;DHT22;25563;50.844;4.308;2024-03-23T13:56:41;23.10;56.60
39889;DHT22;25563;50.844;4.308;2024-03-23T13:59:07;22.80;57.30
39889;DHT22;25563;50.844;4.308;2024-03-23T14:01:32;22.80;57.00
39889;DHT22;25563;50.844;4.308;2024-03-23T14:03:59;21.40;58.40
39889;DHT22;25563;50.844;4.308;2024-03-23T14:06:25;19.50;61.40
39889;DHT22;25563;50.844;4.308;2024-03-23T14:08:51;18.10;64.30
39889;DHT22;25563;50.844;4.308;2024-03-23T14:11:20;17.00;66.00
39889;DHT22;25563;50.844;4.308;2024-03-23T14:13:45;17.30;65.80
39889;DHT22;25563;50.844;4.308;2024-03-23T14:16:11;18.70;64.10
39889;DHT22;25563;50.844;4.308;2024-03-23T14:18:37;20.20;63.10
39889;DHT22;25563;50.844;4.308;2024-03-23T14:21:02;21.00;61.00
39889;DHT22;25563;50.844;4.308;2024-03-23T14:23:31;21.40;60.20
39889;DHT22;25563;50.844;4.308;2024-03-23T14:25:59;21.50;59.50
39889;DHT22;25563;50.844;4.308;2024-03-23T14:28:25;21.70;59.60
39889;DHT22;25563;50.844;4.308;2024-03-23T14:30:54;22.50;59.00
39889;DHT22;25563;50.844;4.308;2024-03-23T14:33:20;21.70;58.80
39889;DHT22;25563;50.844;4.308;2024-03-23T14:35:56;20.50;58.80
39889;DHT22;25563;50.844;4.308;2024-03-23T14:38:22;18.40;61.30
39889;DHT22;25563;50.844;4.308;2024-03-23T14:40:48;18.20;62.70
39889;DHT22;25563;50.844;4.308;2024-03-23T14:43:14;19.70;60.70
39889;DHT22;25563;50.844;4.308;2024-03-23T14:46:09;20.90;59.10
39889;DHT22;25563;50.844;4.308;2024-03-23T14:48:35;21.30;58.00
39889;DHT22;25563;50.844;4.308;2024-03-23T14:51:02;22.30;57.60
39889;DHT22;25563;50.844;4.308;2024-03-23T14:53:33;22.40;57.20
39889;DHT22;25563;50.844;4.308;2024-03-23T14:56:00;23.00;56.90
39889;DHT22;25563;50.844;4.308;2024-03-23T14:58:27;23.20;56.40
39889;DHT22;25563;50.844;4.308;2024-03-23T15:00:52;23.70;56.10
39889;DHT22;25563;50.844;4.308;2024-03-23T15:03:18;23.90;55.50
39889;DHT22;25563;50.844;4.308;2024-03-23T15:06:02;23.40;56.00
39889;DHT22;25563;50.844;4.308;2024-03-23T15:08:28;23.60;55.80
39889;DHT22;25563;50.844;4.308;2024-03-23T15:10:54;22.20;56.60
39889;DHT22;25563;50.844;4.308;2024-03-23T15:13:20;21.90;57.50
39889;DHT22;25563;50.844;4.308;2024-03-23T15:15:48;22.40;58.00
39889;DHT22;25563;50.844;4.308;2024-03-23T15:18:18;23.00;57.10
39889;DHT22;25563;50.844;4.308;2024-03-23T15:20:59;23.50;56.30
39889;DHT22;25563;50.844;4.308;2024-03-23T15:23:32;24.10;56.20
39889;DHT22;25563;50.844;4.308;2024-03-23T15:25:59;24.10;55.20
39889;DHT22;25563;50.844;4.308;2024-03-23T15:28:26;23.60;55.40
39889;DHT22;25563;50.844;4.308;2024-03-23T15:30:53;22.40;56.10
39889;DHT22;25563;50.844;4.308;2024-03-23T15:33:19;20.40;58.30
39889;DHT22;25563;50.844;4.308;2024-03-23T15:35:45;18.60;61.80
39889;DHT22;25563;50.844;4.308;2024-03-23T15:38:10;17.80;62.60
39889;DHT22;25563;50.844;4.308;2024-03-23T15:40:36;16.70;64.60
39889;DHT22;25563;50.844;4.308;2024-03-23T15:43:02;16.10;66.40
39889;DHT22;25563;50.844;4.308;2024-03-23T15:45:28;15.80;67.90
39889;DHT22;25563;50.844;4.308;2024-03-23T15:47:53;15.80;67.50
39889;DHT22;25563;50.844;4.308;2024-03-23T15:50:19;15.60;67.90
39889;DHT22;25563;50.844;4.308;2024-03-23T15:52:45;15.30;68.00
39889;DHT22;25563;50.844;4.308;2024-03-23T15:55:10;14.70;69.20
39889;DHT22;25563;50.844;4.308;2024-03-23T15:57:36;14.60;69.40
39889;DHT22;25563;50.844;4.308;2024-03-23T16:00:03;14.60;68.60
39889;DHT22;25563;50.844;4.308;2024-03-23T16:02:29;14.30;67.70
39889;DHT22;25563;50.844;4.308;2024-03-23T16:04:55;14.00;67.60
39889;DHT22;25563;50.844;4.308;2024-03-23T16:07:22;13.70;68.50
39889;DHT22;25563;50.844;4.308;2024-03-23T16:09:47;13.50;69.50
39889;DHT22;25563;50.844;4.308;2024-03-23T16:12:13;13.60;68.40
39889;DHT22;25563;50.844;4.308;2024-03-23T16:14:39;13.90;67.80
39889;DHT22;25563;50.844;4.308;2024-03-23T16:17:04;14.00;67.40
39889;DHT22;25563;50.844;4.308;2024-03-23T16:19:30;13.80;66.90
39889;DHT22;25563;50.844;4.308;2024-03-23T16:21:57;13.70;67.10
39889;DHT22;25563;50.844;4.308;2024-03-23T16:24:24;13.70;66.90
39889;DHT22;25563;50.844;4.308;2024-03-23T16:26:50;13.80;66.30
39889;DHT22;25563;50.844;4.308;2024-03-23T16:29:16;13.70;66.70
39889;DHT22;25563;50.844;4.308;2024-03-23T16:31:41;13.30;68.10
39889;DHT22;25563;50.844;4.308;2024-03-23T16:34:07;13.40;67.40
39889;DHT22;25563;50.844;4.308;2024-03-23T16:36:33;13.10;68.50
39889;DHT22;25563;50.844;4.308;2024-03-23T16:38:59;12.90;68.40
39889;DHT22;25563;50.844;4.308;2024-03-23T16:41:25;12.90;69.00
39889;DHT22;25563;50.844;4.308;2024-03-23T16:43:50;12.80;69.30
39889;DHT22;25563;50.844;4.308;2024-03-23T16:46:16;12.70;69.40
39889;DHT22;25563;50.844;4.308;2024-03-23T16:48:43;12.70;69.80
39889;DHT22;25563;50.844;4.308;2024-03-23T16:51:10;12.90;69.70
39889;DHT22;25563;50.844;4.308;2024-03-23T16:53:36;13.10;69.40
39889;DHT22;25563;50.844;4.308;2024-03-23T16:56:06;13.00;69.40
39889;DHT22;25563;50.844;4.308;2024-03-23T16:58:35;13.10;69.40
39889;DHT22;25563;50.844;4.308;2024-03-23T17:01:12;12.80;69.80
39889;DHT22;25563;50.844;4.308;2024-03-23T17:03:47;12.90;69.50
39889;DHT22;25563;50.844;4.308;2024-03-23T17:06:15;12.50;69.90
39889;DHT22;25563;50.844;4.308;2024-03-23T17:08:43;12.40;70.50
39889;DHT22;25563;50.844;4.308;2024-03-23T17:11:09;12.40;71.00
39889;DHT22;25563;50.844;4.308;2024-03-23T17:13:36;12.30;71.70